Flight Track Log - Related Links

Times and Time Zones

All times are in EDT time to prevent confusion due to time zone crossing. See the KAP927 flight status page for this flight to view local times or setup timezone preferences in your user account.

Time Position Orientation Groundspeed Altitude Reporting Facility
EDT Latitude Longitude Course Direction KTS MPH feet Rate Location/Type
Sat 02:38:14 PM 42.7881 -73.8122 353° North 110 127 1,200  Level Boston Center
Sat 02:39:15 PM 42.8211 -73.8328 335° Northwest 125 144 1,600 375 Climbing Boston Center
Sat 02:40:22 PM 42.8522 -73.8617 326° Northwest 133 153 2,000 469 Climbing Boston Center
Sat 02:41:23 PM 42.8831 -73.8853 331° Northwest 127 146 2,600 541 Climbing Boston Center
Sat 02:42:24 PM 42.9119 -73.9114 326° Northwest 125 144 3,100 520 Climbing Boston Center
Sat 02:43:30 PM 42.9450 -73.9406 327° Northwest 127 146 3,700 626 Climbing Boston Center
Sat 02:44:19 PM 42.9697 -73.9611 329° Northwest 125 144 4,300 645 Climbing Boston Center
Sat 02:45:31 PM 43.0047 -73.9875 331° Northwest 122 140 5,000 567 Climbing Boston Center
Sat 02:46:26 PM 43.0336 -74.0081 333° Northwest 119 137 5,500 508 Climbing Boston Center
Sat 02:47:29 PM 43.0644 -74.0344 328° Northwest 122 140 6,000 439 Climbing Boston Center
Sat 02:48:29 PM 43.0892 -74.0550 329° Northwest 122 140 6,400 454 Climbing Boston Center
Sat 02:49:28 PM 43.1222 -74.0842 327° Northwest 127 146 6,900 454 Climbing Boston Center
Sat 02:50:28 PM 43.1531 -74.1108 328° Northwest 138 159 7,300 446 Climbing Boston Center
Sat 02:51:29 PM 43.1858 -74.1400 327° Northwest 138 159 7,800 344 Climbing Boston Center
Sat 02:52:30 PM 43.2147 -74.1636 329° Northwest 138 159 8,000 99 Climbing Boston Center
Sat 02:53:30 PM 43.2539 -74.1989 327° Northwest 143 165 8,000  Level Boston Center
Sat 02:54:27 PM 43.2889 -74.2286 328° Northwest 149 171 8,000  Level Boston Center
Sat 02:55:28 PM 43.3300 -74.2639 328° Northwest 160 184 8,000  Level Boston Center
Sat 02:56:29 PM 43.3669 -74.2936 330° Northwest 168 193 8,000  Level Boston Center
Sat 02:57:30 PM 43.4100 -74.3322 327° Northwest 168 193 8,000  Level Boston Center
Sat 02:58:28 PM 43.4469 -74.3647 327° Northwest 163 188 8,000  Level Boston Center
Sat 02:59:29 PM 43.4839 -74.3975 327° Northwest 163 188 8,000  Level Boston Center
Sat 03:00:29 PM 43.5189 -74.4272 328° Northwest 158 182 8,000  Level Boston Center
Sat 03:01:28 PM 43.5558 -74.4569 330° Northwest 158 182 8,000  Level Boston Center
Sat 03:02:41 PM 43.5928 -74.4897 327° Northwest 152 175 8,000  Level Boston Center
Sat 03:03:41 PM 43.6339 -74.5256 328° Northwest 152 175 8,000  Level Boston Center
Sat 03:04:51 PM 43.6689 -74.5556 328° Northwest 152 175 8,000  Level Boston Center
Sat 03:05:52 PM 43.7119 -74.5944 327° Northwest 152 175 8,000  Level Boston Center
Sat 03:06:52 PM 43.7467 -74.6272 326° Northwest 152 175 8,000  Level Boston Center
Sat 03:07:53 PM 43.7836 -74.6572 330° Northwest 152 175 8,000  Level Boston Center
Sat 03:08:53 PM 43.8206 -74.6903 327° Northwest 152 175 8,000  Level Boston Center
Sat 03:09:54 PM 43.8572 -74.7206 329° Northwest 152 175 8,000  Level Boston Center
Sat 03:10:54 PM 43.8922 -74.7536 326° Northwest 152 175 8,000  Level Boston Center
Sat 03:11:52 PM 43.9269 -74.7836 328° Northwest 152 175 8,000  Level Boston Center
Sat 03:12:54 PM 43.9639 -74.8169 327° Northwest 152 175 8,000  Level Boston Center
Sat 03:13:54 PM 44.0006 -74.8500 327° Northwest 152 175 8,000  Level Boston Center
Sat 03:14:54 PM 44.0375 -74.8806 329° Northwest 152 175 8,000  Level Boston Center
Sat 03:15:52 PM 44.0661 -74.9047 329° Northwest 152 175 8,000 -151 Level Boston Center
Sat 03:16:53 PM 44.1111 -74.9472 326° Northwest 152 175 7,700 -347 Descending Boston Center
Sat 03:17:53 PM 44.1519 -74.9806 330° Northwest 157 181 7,300 -400 Descending Boston Center
Sat 03:18:53 PM 44.1928 -75.0200 325° Northwest 170 196 6,900 -446 Descending Boston Center
Sat 03:19:54 PM 44.2358 -75.0539 331° Northwest 170 196 6,400 -446 Descending Boston Center
Sat 03:20:54 PM 44.2764 -75.0961 323° Northwest 170 196 6,000 -458 Descending Boston Center
Sat 03:21:52 PM 44.3194 -75.1300 331° Northwest 170 196 5,500 -517 Descending Boston Center
Sat 03:23:00 PM 44.3539 -75.1677 322° Northwest  Level FlightAware Approximate

Login

Don't have an account? Register now (free) for customized features, flight alerts, and more!